Nearby METAR Reports

 

LBGO - Gorna Orechovist, Bulgaria
Distance from station: NE 57km
Updated: 15/11/2019 12:30
Few Clouds
Few Clouds
 Wind from varies
Wind: varies 4 km/h
Temperature: 16°C
Dew Point: 12°C
Humidity: 77%
Barometer: 1017 hPa
Clouds: Few Clouds
Visibility: 10 km
Cloud details: Few Clouds 518 m
2019/11/15 10:30 LBGO 151030Z AUTO VRB02KT 9999 FEW017 16/12 Q1017 BECMG FEW015